createdAt,value
2019-03-30T00:01:08.285Z,35.83
2019-03-30T00:03:40.172Z,38.90
2019-03-30T00:06:12.029Z,37.28
2019-03-30T00:08:43.861Z,36.03
2019-03-30T00:11:15.849Z,35.17
2019-03-30T00:13:47.702Z,35.15
2019-03-30T00:16:20.977Z,38.90
2019-03-30T00:18:54.566Z,33.25
2019-03-30T00:21:26.484Z,36.83
2019-03-30T00:23:59.456Z,34.92
2019-03-30T00:26:33.421Z,37.25
2019-03-30T00:29:06.040Z,34.18
2019-03-30T00:31:40.483Z,36.08
2019-03-30T00:34:12.876Z,34.27
2019-03-30T00:36:47.538Z,35.85
2019-03-30T00:39:19.492Z,32.98
2019-03-30T00:41:52.918Z,37.48
2019-03-30T00:44:25.923Z,38.00
2019-03-30T00:46:58.210Z,36.00
2019-03-30T00:49:31.140Z,36.15
2019-03-30T00:52:03.369Z,35.92
2019-03-30T00:54:35.513Z,38.60
2019-03-30T00:57:07.430Z,38.80
2019-03-30T00:59:40.191Z,38.50
2019-03-30T01:02:12.049Z,39.30
2019-03-30T01:04:44.013Z,38.90
2019-03-30T01:07:17.700Z,38.45
2019-03-30T01:09:49.473Z,37.90
2019-03-30T01:12:22.205Z,39.53
2019-03-30T01:14:54.239Z,42.08
2019-03-30T01:17:26.159Z,37.55
2019-03-30T01:20:03.193Z,39.38
2019-03-30T01:22:33.912Z,37.53
2019-03-30T01:25:07.494Z,39.13
2019-03-30T01:27:39.212Z,37.08
2019-03-30T01:30:22.605Z,39.48
2019-03-30T01:32:45.102Z,34.55
2019-03-30T01:35:17.094Z,38.38
2019-03-30T01:37:49.198Z,35.75
2019-03-30T01:40:21.022Z,34.15
2019-03-30T01:42:53.870Z,36.83
2019-03-30T01:45:25.729Z,38.45
2019-03-30T01:47:57.637Z,34.48
2019-03-30T01:50:29.492Z,38.83
2019-03-30T01:53:02.755Z,37.42
2019-03-30T01:55:34.515Z,35.95
2019-03-30T01:58:06.325Z,35.43
2019-03-30T02:00:38.567Z,39.18
2019-03-30T02:03:10.795Z,40.00
2019-03-30T02:05:42.692Z,40.33
2019-03-30T02:08:14.520Z,39.90
2019-03-30T02:10:46.681Z,40.03
2019-03-30T02:13:18.481Z,41.08
2019-03-30T02:15:50.722Z,40.15
2019-03-30T02:18:22.818Z,40.70
2019-03-30T02:20:54.571Z,39.65
2019-03-30T02:23:26.391Z,39.80
2019-03-30T02:25:58.272Z,37.08
2019-03-30T02:28:31.178Z,37.60
2019-03-30T02:31:02.930Z,36.10
2019-03-30T02:33:34.872Z,36.85
2019-03-30T02:36:07.351Z,34.63
2019-03-30T02:38:39.089Z,33.58
2019-03-30T02:41:10.841Z,34.13
2019-03-30T02:43:42.546Z,35.35
2019-03-30T02:46:14.476Z,33.98
2019-03-30T02:48:46.720Z,34.33
2019-03-30T02:51:18.638Z,37.53
2019-03-30T02:53:50.434Z,37.60
2019-03-30T02:56:22.686Z,33.92
2019-03-30T02:58:54.591Z,34.65
2019-03-30T03:01:27.283Z,33.67
2019-03-30T03:03:59.107Z,32.70
2019-03-30T03:06:30.956Z,33.60
2019-03-30T03:09:03.937Z,32.08
2019-03-30T03:11:35.744Z,32.05
2019-03-30T03:14:07.525Z,32.00
2019-03-30T03:16:39.391Z,32.88
2019-03-30T03:19:11.188Z,32.40
2019-03-30T03:21:43.238Z,34.18
2019-03-30T03:24:15.132Z,31.33
2019-03-30T03:26:46.824Z,34.58
2019-03-30T03:29:18.923Z,30.92
2019-03-30T03:31:51.604Z,27.60
2019-03-30T03:34:23.396Z,26.90
2019-03-30T03:36:55.150Z,19.10
2019-03-30T03:39:26.929Z,30.35
2019-03-30T03:41:58.698Z,29.25
2019-03-30T03:44:30.459Z,27.98
2019-03-30T03:47:02.582Z,26.45
2019-03-30T03:49:34.273Z,26.02
2019-03-30T03:52:08.713Z,28.32
2019-03-30T03:54:41.633Z,23.70
2019-03-30T03:57:16.749Z,26.73
2019-03-30T03:59:51.951Z,26.95
2019-03-30T04:02:26.030Z,26.75
2019-03-30T04:05:00.506Z,26.42
2019-03-30T04:07:34.575Z,24.32
2019-03-30T04:10:07.139Z,28.17
2019-03-30T04:12:41.621Z,33.58
2019-03-30T04:15:24.278Z,33.78
2019-03-30T04:17:57.019Z,33.53
2019-03-30T04:20:28.766Z,35.25
2019-03-30T04:23:00.432Z,34.20
2019-03-30T04:25:32.231Z,35.58
2019-03-30T04:28:03.980Z,31.85
2019-03-30T04:30:35.753Z,32.38
2019-03-30T04:33:07.435Z,33.90
2019-03-30T04:35:39.292Z,34.50
2019-03-30T04:38:14.214Z,34.08
2019-03-30T04:40:44.791Z,35.35
2019-03-30T04:43:17.563Z,32.75
2019-03-30T04:45:49.361Z,32.35
2019-03-30T04:48:21.146Z,34.15
2019-03-30T04:50:52.977Z,34.43
2019-03-30T04:53:24.773Z,33.18
2019-03-30T04:55:56.468Z,34.53
2019-03-30T04:58:28.305Z,36.50
2019-03-30T05:01:00.069Z,36.50
2019-03-30T05:03:31.925Z,35.92
2019-03-30T05:06:03.600Z,31.65
2019-03-30T05:08:35.485Z,35.65
2019-03-30T05:11:07.440Z,37.25
2019-03-30T05:13:39.878Z,28.20
2019-03-30T05:16:12.694Z,36.40
2019-03-30T05:18:44.496Z,37.03
2019-03-30T05:21:16.282Z,35.33
2019-03-30T05:23:48.003Z,37.45
2019-03-30T05:26:21.877Z,36.28
2019-03-30T05:28:53.637Z,35.68
2019-03-30T05:31:29.291Z,30.55
2019-03-30T05:34:01.187Z,27.95
2019-03-30T05:36:33.110Z,36.35
2019-03-30T05:39:10.150Z,33.78
2019-03-30T05:41:42.066Z,29.98
2019-03-30T05:44:14.932Z,33.63
2019-03-30T05:46:48.188Z,35.23
2019-03-30T05:49:19.921Z,33.33
2019-03-30T05:51:52.117Z,34.55
2019-03-30T05:54:23.833Z,35.43
2019-03-30T05:56:55.591Z,34.95
2019-03-30T05:59:27.460Z,32.85
2019-03-30T06:01:59.549Z,33.18
2019-03-30T06:04:31.305Z,32.20
2019-03-30T06:07:03.039Z,31.93
2019-03-30T06:09:35.056Z,33.30
2019-03-30T06:12:07.276Z,32.55
2019-03-30T06:14:39.088Z,32.13
2019-03-30T06:17:10.931Z,30.17
2019-03-30T06:19:42.809Z,20.40
2019-03-30T06:22:14.670Z,31.70
2019-03-30T06:24:47.087Z,31.27
2019-03-30T06:27:18.951Z,31.40
2019-03-30T06:30:15.634Z,31.50
2019-03-30T06:32:47.616Z,31.65
2019-03-30T06:35:19.469Z,31.82
2019-03-30T06:37:51.287Z,32.20
2019-03-30T06:40:23.135Z,32.40
2019-03-30T06:42:57.336Z,32.58
2019-03-30T06:45:29.120Z,30.05
2019-03-30T06:48:00.917Z,32.63
2019-03-30T06:50:32.637Z,27.10
2019-03-30T06:53:04.482Z,34.30
2019-03-30T06:55:36.252Z,33.73
2019-03-30T06:58:08.497Z,34.83
2019-03-30T07:00:41.006Z,34.90
2019-03-30T07:03:12.812Z,34.67
2019-03-30T07:05:44.996Z,35.48
2019-03-30T07:10:14.643Z,37.30
2019-03-30T07:12:49.931Z,36.95
2019-03-30T07:15:21.743Z,37.58
2019-03-30T07:17:55.525Z,37.15
2019-03-30T07:20:32.607Z,35.90
2019-03-30T07:23:11.881Z,37.53
2019-03-30T07:25:37.975Z,36.65
2019-03-30T07:28:09.784Z,36.17
2019-03-30T07:30:41.589Z,35.45
2019-03-30T07:33:13.345Z,37.65
2019-03-30T07:35:45.162Z,38.10
2019-03-30T07:38:16.963Z,35.65
2019-03-30T07:40:48.790Z,36.17
2019-03-30T07:43:20.886Z,36.80
2019-03-30T07:45:52.766Z,36.88
2019-03-30T07:48:24.660Z,37.45
2019-03-30T07:50:57.506Z,37.38
2019-03-30T07:53:43.589Z,38.30
2019-03-30T07:56:08.627Z,39.15
2019-03-30T07:58:37.589Z,38.50
2019-03-30T08:01:09.389Z,37.15
2019-03-30T08:03:41.333Z,38.35
2019-03-30T08:06:16.444Z,27.45
2019-03-30T08:08:48.693Z,38.10
2019-03-30T08:11:21.095Z,39.45
2019-03-30T08:13:53.281Z,38.05
2019-03-30T08:16:25.223Z,41.85
2019-03-30T08:18:57.336Z,33.67
2019-03-30T08:21:29.217Z,32.48
2019-03-30T08:24:01.045Z,36.28
2019-03-30T08:26:35.647Z,38.55
2019-03-30T08:29:07.003Z,25.68
2019-03-30T08:31:39.415Z,17.40
2019-03-30T08:34:11.462Z,15.05
2019-03-30T08:36:43.320Z,29.10
2019-03-30T08:39:15.167Z,26.93
2019-03-30T08:41:46.934Z,32.95
2019-03-30T08:44:18.770Z,34.38
2019-03-30T08:46:51.053Z,30.88
2019-03-30T08:49:22.882Z,35.00
2019-03-30T08:51:54.793Z,24.65
2019-03-30T08:54:26.654Z,26.50
2019-03-30T08:56:58.689Z,32.80
2019-03-30T08:59:30.809Z,21.77
2019-03-30T09:02:02.715Z,31.52
2019-03-30T09:04:36.372Z,33.60
2019-03-30T09:07:08.472Z,31.77
2019-03-30T09:09:40.281Z,30.68
2019-03-30T09:12:13.253Z,29.95
2019-03-30T09:14:45.040Z,31.17
2019-03-30T09:17:16.971Z,14.68
2019-03-30T09:19:49.207Z,30.65
2019-03-30T09:22:21.532Z,26.90
2019-03-30T09:24:53.767Z,20.60
2019-03-30T09:27:29.140Z,15.72
2019-03-30T09:30:01.583Z,33.15
2019-03-30T09:32:34.072Z,31.07
2019-03-30T09:35:06.344Z,27.42
2019-03-30T09:37:38.271Z,30.20
2019-03-30T09:40:10.517Z,28.85
2019-03-30T09:42:42.380Z,26.33
2019-03-30T09:45:17.392Z,18.52
2019-03-30T09:47:49.214Z,27.20
2019-03-30T09:50:21.178Z,17.42
2019-03-30T09:52:52.995Z,16.02
2019-03-30T09:55:27.178Z,27.35
2019-03-30T09:57:58.702Z,17.35
2019-03-30T10:00:30.619Z,28.55
2019-03-30T10:03:09.877Z,23.18
2019-03-30T10:05:42.654Z,19.45
2019-03-30T10:08:14.685Z,25.88
2019-03-30T10:10:46.599Z,20.97
2019-03-30T10:13:18.577Z,12.88
2019-03-30T10:15:50.566Z,19.95
2019-03-30T10:18:22.411Z,18.75
2019-03-30T10:20:54.412Z,21.40
2019-03-30T10:23:26.261Z,14.38
2019-03-30T10:25:58.856Z,21.90
2019-03-30T10:28:30.830Z,27.32
2019-03-30T10:31:02.954Z,18.92
2019-03-30T10:33:35.595Z,29.65
2019-03-30T10:36:07.386Z,26.07
2019-03-30T10:38:39.428Z,30.85
2019-03-30T10:41:11.334Z,24.92
2019-03-30T10:43:43.133Z,24.70
2019-03-30T10:46:15.007Z,24.52
2019-03-30T10:48:47.119Z,28.57
2019-03-30T10:51:18.962Z,20.65
2019-03-30T10:53:50.838Z,29.60
2019-03-30T10:56:22.734Z,30.62
2019-03-30T10:58:54.594Z,15.23
2019-03-30T11:01:26.487Z,29.02
2019-03-30T11:03:58.476Z,30.23
2019-03-30T11:06:30.731Z,24.43
2019-03-30T11:09:02.814Z,28.80
2019-03-30T11:11:36.761Z,28.57
2019-03-30T11:14:08.680Z,24.43
2019-03-30T11:16:42.013Z,30.23
2019-03-30T11:19:13.724Z,30.80
2019-03-30T11:21:45.692Z,28.42
2019-03-30T11:24:17.597Z,28.83
2019-03-30T11:26:49.424Z,20.52
2019-03-30T11:29:21.196Z,26.77
2019-03-30T11:31:52.982Z,25.08
2019-03-30T11:34:25.344Z,26.68
2019-03-30T11:36:57.353Z,25.72
2019-03-30T11:39:29.210Z,24.27
2019-03-30T11:42:00.992Z,22.15
2019-03-30T11:44:32.984Z,17.20
2019-03-30T11:47:04.856Z,17.55
2019-03-30T11:49:36.667Z,18.37
2019-03-30T11:52:08.363Z,22.85
2019-03-30T11:54:40.223Z,20.35
2019-03-30T11:57:12.945Z,14.58
2019-03-30T11:59:44.811Z,18.40
2019-03-30T12:02:27.396Z,24.77
2019-03-30T12:04:51.283Z,26.12
2019-03-30T12:07:23.445Z,13.88
2019-03-30T12:09:55.715Z,29.87
2019-03-30T12:12:27.525Z,28.95
2019-03-30T12:14:59.710Z,25.88
2019-03-30T12:17:31.447Z,21.42
2019-03-30T12:22:55.455Z,27.93
2019-03-30T12:25:35.603Z,25.37
2019-03-30T12:28:02.122Z,25.82
2019-03-30T12:30:34.123Z,18.12
2019-03-30T12:33:07.057Z,23.18
2019-03-30T12:35:38.994Z,25.70
2019-03-30T12:38:10.980Z,21.77
2019-03-30T12:40:43.499Z,24.82
2019-03-30T12:43:15.355Z,16.37
2019-03-30T12:45:48.241Z,26.23
2019-03-30T12:48:20.507Z,27.07
2019-03-30T12:50:52.510Z,27.65
2019-03-30T12:53:24.500Z,28.02
2019-03-30T12:55:56.277Z,17.00
2019-03-30T12:58:28.369Z,22.25
2019-03-30T13:01:00.539Z,19.17
2019-03-30T13:03:32.498Z,25.40
2019-03-30T13:06:04.699Z,28.00
2019-03-30T13:08:36.965Z,25.62
2019-03-30T13:11:09.648Z,27.93
2019-03-30T13:13:42.073Z,19.07
2019-03-30T13:16:14.179Z,25.55
2019-03-30T13:18:49.071Z,21.85
2019-03-30T13:21:22.546Z,26.62
2019-03-30T13:23:56.835Z,23.00
2019-03-30T13:26:30.357Z,20.45
2019-03-30T13:29:02.167Z,24.63
2019-03-30T13:31:37.180Z,20.43
2019-03-30T13:34:09.171Z,20.43
2019-03-30T13:36:44.387Z,21.93
2019-03-30T13:39:17.525Z,23.62
2019-03-30T13:41:49.269Z,22.17
2019-03-30T13:44:24.148Z,20.05
2019-03-30T13:46:56.045Z,13.40
2019-03-30T13:49:29.809Z,18.55
2019-03-30T13:52:01.686Z,23.02
2019-03-30T13:54:33.629Z,17.62
2019-03-30T13:57:06.012Z,15.25
2019-03-30T13:59:38.587Z,16.42
2019-03-30T14:02:10.456Z,12.90
2019-03-30T14:04:42.242Z,14.28
2019-03-30T14:07:15.670Z,20.37
2019-03-30T14:09:47.468Z,21.15
2019-03-30T14:12:19.596Z,14.35
2019-03-30T14:14:51.399Z,20.43
2019-03-30T14:17:23.171Z,18.55
2019-03-30T14:19:54.957Z,21.87
2019-03-30T14:22:26.694Z,22.73
2019-03-30T14:24:58.462Z,19.70
2019-03-30T14:27:30.218Z,17.75
2019-03-30T14:30:02.003Z,14.67
2019-03-30T14:32:33.730Z,16.00
2019-03-30T14:35:05.559Z,14.23
2019-03-30T14:37:38.413Z,16.50
2019-03-30T14:40:10.607Z,15.70
2019-03-30T14:42:42.834Z,15.05
2019-03-30T14:45:14.730Z,18.48
2019-03-30T14:47:48.331Z,17.75
2019-03-30T14:50:20.769Z,17.50
2019-03-30T14:52:52.565Z,20.08
2019-03-30T14:55:24.697Z,21.33
2019-03-30T14:57:56.443Z,21.00
2019-03-30T15:00:28.646Z,18.25
2019-03-30T15:03:00.489Z,19.85
2019-03-30T15:05:32.653Z,20.20
2019-03-30T15:08:04.477Z,11.33
2019-03-30T15:10:36.178Z,16.48
2019-03-30T15:13:07.993Z,19.95
2019-03-30T15:15:40.062Z,21.65
2019-03-30T15:18:12.139Z,20.00
2019-03-30T15:20:44.111Z,20.17
2019-03-30T15:23:15.837Z,10.80
2019-03-30T15:25:47.682Z,19.67
2019-03-30T15:28:21.147Z,8.28
2019-03-30T15:30:52.989Z,15.60
2019-03-30T15:33:24.733Z,18.05
2019-03-30T15:35:57.681Z,24.85
2019-03-30T15:38:30.348Z,14.55
2019-03-30T15:41:02.224Z,22.65
2019-03-30T15:43:38.461Z,14.47
2019-03-30T15:46:07.576Z,12.70
2019-03-30T15:48:39.392Z,18.42
2019-03-30T15:51:11.448Z,21.45
2019-03-30T15:53:43.206Z,22.55
2019-03-30T15:56:15.583Z,15.10
2019-03-30T15:58:50.125Z,25.88
2019-03-30T16:01:22.499Z,24.77
2019-03-30T16:03:56.898Z,15.88
2019-03-30T16:06:28.788Z,10.20
2019-03-30T16:09:00.999Z,21.73
2019-03-30T16:11:35.249Z,19.62
2019-03-30T16:14:08.472Z,15.38
2019-03-30T16:16:40.318Z,18.25
2019-03-30T16:19:12.071Z,22.13
2019-03-30T16:21:44.318Z,24.75
2019-03-30T16:24:16.100Z,22.15
2019-03-30T16:26:47.913Z,22.42
2019-03-30T16:29:20.583Z,25.65
2019-03-30T16:31:53.320Z,26.97
2019-03-30T16:34:26.908Z,27.10
2019-03-30T16:36:59.351Z,18.27
2019-03-30T16:39:34.798Z,27.20
2019-03-30T16:42:06.134Z,27.50
2019-03-30T16:44:38.874Z,17.55
2019-03-30T16:47:10.866Z,20.08
2019-03-30T16:49:43.059Z,28.75
2019-03-30T16:52:15.045Z,28.47
2019-03-30T16:54:47.132Z,25.65
2019-03-30T16:57:19.436Z,27.48
2019-03-30T16:59:51.251Z,31.48
2019-03-30T17:02:23.012Z,32.20
2019-03-30T17:04:57.666Z,32.67
2019-03-30T17:07:29.838Z,29.98
2019-03-30T17:10:01.665Z,36.45
2019-03-30T17:12:33.430Z,36.35
2019-03-30T17:15:05.636Z,29.02
2019-03-30T17:17:37.407Z,40.23
2019-03-30T17:20:10.311Z,41.37
2019-03-30T17:22:43.457Z,39.08
2019-03-30T17:25:15.343Z,41.30
2019-03-30T17:27:58.264Z,26.20
2019-03-30T17:30:20.748Z,34.50
2019-03-30T17:32:53.248Z,42.27
2019-03-30T17:35:25.207Z,46.30
2019-03-30T17:37:57.379Z,41.10
2019-03-30T17:40:29.189Z,38.48
2019-03-30T17:43:00.953Z,43.63
2019-03-30T17:45:35.308Z,34.75
2019-03-30T17:48:07.170Z,46.05
2019-03-30T17:50:38.954Z,45.75
2019-03-30T17:53:13.426Z,43.70
2019-03-30T17:55:45.247Z,35.30
2019-03-30T17:58:18.129Z,42.67
2019-03-30T18:00:50.086Z,37.25
2019-03-30T18:03:22.078Z,27.98
2019-03-30T18:05:53.851Z,40.23
2019-03-30T18:08:26.279Z,33.73
2019-03-30T18:10:58.471Z,38.88
2019-03-30T18:13:30.273Z,37.05
2019-03-30T18:16:02.112Z,29.85
2019-03-30T18:18:34.434Z,37.28
2019-03-30T18:21:06.367Z,40.92
2019-03-30T18:23:40.963Z,41.98
2019-03-30T18:26:12.931Z,35.73
2019-03-30T18:28:45.667Z,35.17
2019-03-30T18:31:18.105Z,39.50
2019-03-30T18:33:50.399Z,33.48
2019-03-30T18:36:22.619Z,39.48
2019-03-30T18:39:08.864Z,37.55
2019-03-30T18:41:30.363Z,30.12
2019-03-30T18:44:03.721Z,38.80
2019-03-30T18:46:35.602Z,39.05
2019-03-30T18:49:07.445Z,31.07
2019-03-30T18:51:41.722Z,34.35
2019-03-30T18:54:13.701Z,39.08
2019-03-30T18:56:45.529Z,39.18
2019-03-30T18:59:17.373Z,36.55
2019-03-30T19:01:49.150Z,39.42
2019-03-30T19:04:21.023Z,39.45
2019-03-30T19:06:55.255Z,34.75
2019-03-30T19:09:26.827Z,36.00
2019-03-30T19:11:58.664Z,27.77
2019-03-30T19:14:30.582Z,38.98
2019-03-30T19:17:03.580Z,36.33
2019-03-30T19:19:35.492Z,39.48
2019-03-30T19:22:08.413Z,40.10
2019-03-30T19:24:40.664Z,38.90
2019-03-30T19:27:12.456Z,37.25
2019-03-30T19:29:44.697Z,34.67
2019-03-30T19:32:16.488Z,46.48
2019-03-30T19:34:48.614Z,37.60
2019-03-30T19:37:20.606Z,38.25
2019-03-30T19:39:53.094Z,29.52
2019-03-30T19:42:25.215Z,36.88
2019-03-30T19:44:57.511Z,41.68
2019-03-30T19:47:30.892Z,37.33
2019-03-30T19:50:03.202Z,35.70
2019-03-30T19:52:39.985Z,38.30
2019-03-30T19:55:09.833Z,35.52
2019-03-30T19:57:41.918Z,37.55
2019-03-30T20:00:14.460Z,37.45
2019-03-30T20:02:46.445Z,33.45
2019-03-30T20:05:18.440Z,37.55
2019-03-30T20:07:50.314Z,36.03
2019-03-30T20:10:22.150Z,38.02
2019-03-30T20:12:53.933Z,36.40
2019-03-30T20:15:26.241Z,37.00
2019-03-30T20:17:58.746Z,32.53
2019-03-30T20:20:30.509Z,38.15
2019-03-30T20:23:02.304Z,35.83
2019-03-30T20:25:34.172Z,35.05
2019-03-30T20:28:05.880Z,36.93
2019-03-30T20:30:37.686Z,35.55
2019-03-30T20:33:10.179Z,40.78
2019-03-30T20:35:41.917Z,35.58
2019-03-30T20:38:13.758Z,38.05
2019-03-30T20:40:45.566Z,34.27
2019-03-30T20:43:17.286Z,33.63
2019-03-30T20:45:49.028Z,36.10
2019-03-30T20:48:20.736Z,13.18
2019-03-30T20:50:52.680Z,34.25
2019-03-30T20:53:24.601Z,35.38
2019-03-30T20:55:56.438Z,24.50
2019-03-30T20:58:28.325Z,32.13
2019-03-30T21:01:00.542Z,34.08
2019-03-30T21:03:32.632Z,30.50
2019-03-30T21:06:04.760Z,13.13
2019-03-30T21:08:36.630Z,34.78
2019-03-30T21:11:08.423Z,31.87
2019-03-30T21:13:40.206Z,29.18
2019-03-30T21:16:12.414Z,21.27
2019-03-30T21:18:44.263Z,25.32
2019-03-30T21:21:16.176Z,21.30
2019-03-30T21:23:48.123Z,27.05
2019-03-30T21:26:19.951Z,17.90
2019-03-30T21:28:52.116Z,31.23
2019-03-30T21:31:23.943Z,19.07
2019-03-30T21:33:56.809Z,27.80
2019-03-30T21:36:28.691Z,26.03
2019-03-30T21:39:00.893Z,20.77
2019-03-30T21:41:34.286Z,25.23
2019-03-30T21:44:06.199Z,14.38
2019-03-30T21:46:38.013Z,53.73
2019-03-30T21:49:09.837Z,25.30
2019-03-30T21:51:44.050Z,15.30
2019-03-30T21:54:15.849Z,14.13
2019-03-30T21:56:49.040Z,10.18
2019-03-30T21:59:20.903Z,10.08
2019-03-30T22:01:52.692Z,14.30
2019-03-30T22:04:24.827Z,12.20
2019-03-30T22:06:56.721Z,10.40
2019-03-30T22:09:29.891Z,10.45
2019-03-30T22:12:03.396Z,17.48
2019-03-30T22:14:36.308Z,13.83
2019-03-30T22:17:08.204Z,14.23
2019-03-30T22:19:40.023Z,18.53
2019-03-30T22:22:12.026Z,18.42
2019-03-30T22:24:44.057Z,14.43
2019-03-30T22:27:16.173Z,16.05
2019-03-30T22:29:48.313Z,10.25
2019-03-30T22:32:20.570Z,12.70
2019-03-30T22:34:52.485Z,16.20
2019-03-30T22:37:24.832Z,12.95
2019-03-30T22:39:56.682Z,11.18
2019-03-30T22:42:28.849Z,16.17
2019-03-30T22:45:00.685Z,15.03
2019-03-30T22:47:32.547Z,19.75
2019-03-30T22:50:04.538Z,18.07
2019-03-30T22:52:36.413Z,14.30
2019-03-30T22:55:08.370Z,14.30
2019-03-30T22:57:40.151Z,16.57
2019-03-30T23:00:22.216Z,9.88
2019-03-30T23:03:01.358Z,11.03
2019-03-30T23:05:33.444Z,15.60
2019-03-30T23:08:05.672Z,9.60
2019-03-30T23:10:37.529Z,7.15
2019-03-30T23:13:09.986Z,7.03
2019-03-30T23:15:42.304Z,9.95
2019-03-30T23:18:14.275Z,14.45
2019-03-30T23:20:47.097Z,14.68
2019-03-30T23:23:19.053Z,15.23
2019-03-30T23:25:51.953Z,12.28
2019-03-30T23:28:23.790Z,13.60
2019-03-30T23:30:55.594Z,11.85
2019-03-30T23:33:27.722Z,14.20
2019-03-30T23:35:59.805Z,5.40
2019-03-30T23:38:32.057Z,13.32
2019-03-30T23:41:03.931Z,13.30
2019-03-30T23:43:36.717Z,11.15
2019-03-30T23:48:19.749Z,12.00
2019-03-30T23:50:51.517Z,11.73
2019-03-30T23:53:23.280Z,12.37
2019-03-30T23:55:55.015Z,12.63
2019-03-30T23:58:27.083Z,12.80
